Tiempo atmosférico en la estación meteorológica de Ainsa, Huesca (610 m.)



Fecha
DESCASC
Temp. máxima en grados centígrados (hora)
DESCASC
Temp. mínima en grados centígrados (hora)
DESCASC
Temp. media en grados centígrados
DESCASC
Racha de viento máxima en m/sg (hora)
DESCASC
Velocidad máxima media en intervalos de 10 minutos(hora)
DESCASC
Precipitaciones diarias en mm
DESCASC
Precipitaciones de 00:00 a 06:00 en mm
DESCASC
Precipitaciones de 06:00 a 12:00 en mm
DESCASC
Precipitaciones de 12:00 a 18:00 en mm
DESCASC
Precipitaciones de 18:00 a 24:00 en mm
DESCASC
14-12-2019 15.3 (15:50) 3.7 (08:10) 9.5 11.11 (00:30) 6.39 (00:30) 0 0 0 0 0
13-12-2019 15.4 (14:50) 1.5 (00:00) 8.4 14.44 (15:50) 10 (15:50) 10.4 5.4 5 0 0
12-12-2019 7.4 (13:50) 0 (08:10) 3.7 5.83 (13:10) 4.17 (13:00) 14.4 0 0 5.2 9.2
11-12-2019 11.4 (16:30) 1 (00:00) 6.2 14.72 (19:30) 10.56 (19:30) 0 0 0 0 0
10-12-2019 12.7 (04:10) 2.9 (00:00) 7.8 15.56 (04:10) 8.61 (04:00) 0 0 0 0 0
09-12-2019 14.3 (14:50) 0 (00:00) 7.2 14.17 (13:50) 9.44 (13:40) 0.2 0.2 0 0 0
08-12-2019 11.1 (14:50) -1.8 (-00:0) 4.7 4.72 (16:10) 3.89 (16:10) 0.2 0 0.2 0 0
07-12-2019 12.4 (15:50) -0.1 (00:00) 6.1 3.61 (01:00) 2.78 (23:00) 0 0 0 0 0
06-12-2019 11.7 (12:40) 2.2 (00:00) 6.9 4.17 (00:10) 3.06 (14:30) 0 0 0 0 0
05-12-2019 13.5 (14:50) 4.5 (00:00) 9 5 (16:00) 3.89 (16:00) 0 0 0 0 0
04-12-2019 8.7 (14:40) 0 (00:00) 4.3 5.56 (08:30) 4.17 (08:30) 0 0 0 0 0
03-12-2019 9.7 (14:50) -1.7 (-00:0) 4 5 (17:00) 4.17 (17:00) 0 0 0 0 0
02-12-2019 12.6 (15:50) -0.3 (00:00) 6.2 5 (23:50) 3.89 (01:20) 0 0 0 0 0
01-12-2019 12.6 (15:50) 2.5 (00:00) 7.6 6.11 (02:20) 4.44 (02:20) 0.2 0.2 0 0 0
30-11-2019 9.2 (16:50) 2.6 (00:00) 5.9 7.22 (21:40) 3.89 (21:40) 4.6 0 0 0 4.6
29-11-2019 16.3 (15:10) 5.4 (00:00) 10.8 5.83 (18:10) 5 (19:50) 0.8 0.8 0 0 0
28-11-2019 13.6 (15:30) 5.9 (00:00) 9.8 5.28 (16:00) 3.89 (16:00) 4.6 0.4 0.2 0 4
27-11-2019 14.2 (13:30) 7.1 (00:00) 10.6 7.22 (15:30) 5.28 (16:10) 4.8 4.4 0 0 0.4
26-11-2019 12.7 (15:50) 2.3 (00:00) 7.5 5 (00:20) 3.33 (00:10) 1 0 0 0 1
25-11-2019 14.9 (14:00) 1.3 (00:00) 8.1 5.28 (21:50) 4.44 (21:50) 0 0 0 0 0
24-11-2019 13 (16:40) 0.5 (00:00) 6.8 5.83 (12:00) 3.89 (00:50) 0 0 0 0 0
23-11-2019 9.4 (15:00) 3.8 (00:00) 6.6 11.11 (20:50) 7.78 (21:00) 2.6 0.2 2.4 0 0
22-11-2019 7.1 (23:40) 3.5 (00:00) 5.3 8.33 (23:30) 5.28 (20:40) 45 0 0 12.2 32.8
21-11-2019 11.9 (13:50) 2.2 (00:00) 7 6.67 (14:00) 5 (14:00) 0.4 0 0 0 0.4
20-11-2019 10 (16:00) -3 (-00:0) 3.5 4.17 (23:10) 3.06 (05:30) 0 0 0 0 0
19-11-2019 10.7 (15:00) -3.1 (-00:0) 3.8 5.83 (16:50) 4.44 (16:40) 0 0 0 0 0
18-11-2019 12.4 (14:50) 0.9 (00:00) 6.6 7.5 (19:20) 5.56 (19:20) 0 0 0 0 0
17-11-2019 9.4 (14:50) -2.4 (-00:0) 3.5 4.17 (14:20) 3.61 (21:20) 0.2 0 0.2 0 0
16-11-2019 5.1 (14:50) -2.7 (-00:0) 1.2 4.17 (15:10) 3.06 (15:10) 0.2 0 0.2 0 0

Gráficas

Temp. máximas Temp. mínimas Temp. medias Precipitaciones Rachas de viento máximas Velocidades máximas media en intervalos de 10 minutos

Datos horarios

Fecha y hora oficial Temperatura (ºC) Velocidad del viento (km/h) Dirección del viento Racha (km/h) Dirección de racha Precipitación (mm) Presión (hPa) Tendencia (hPa) Humedad (%)
2019-12-15 23:00:00 5.5 6 Noroeste 12 Norte 0 -- -- 94
2019-12-15 22:00:00 6.4 3 Noroeste 14 Noroeste 0 -- -- 92
2019-12-15 21:00:00 6.6 9 Noroeste 15 Noroeste 0 -- -- 92
2019-12-15 20:00:00 7.2 6 Noroeste 14 Noroeste 0 -- -- 90
2019-12-15 19:00:00 7.9 9 Noroeste 14 Norte 0 -- -- 88
2019-12-15 18:00:00 8.8 12 Norte 15 Norte 0 -- -- 85
2019-12-15 17:00:00 11.8 2 Sur 9 Sudeste 0 -- -- 72
2019-12-15 16:00:00 12.9 8 Sudeste 12 Sudeste 0 -- -- 68
2019-12-15 15:00:00 12.4 8 Sur 11 Sudeste 0 -- -- 70
2019-12-15 14:00:00 11.6 4 Sudeste 6 Sudeste 0 -- -- 73
2019-12-15 13:00:00 9 2 Este 7 Este 0 -- -- 80
2019-12-15 12:00:00 6 3 Este 8 Sudeste 0 -- -- 100
2019-12-15 11:00:00 3.4 3 Sur 6 Sudeste 0 -- -- 100
2019-12-15 10:00:00 2.4 3 Este 6 Norte 0 -- -- 100
2019-12-15 09:00:00 1.6 3 Sudoeste 7 Noroeste 0.2 -- -- 100
2019-12-15 08:00:00 2.3 5 Norte 8 Norte 0 -- -- 100
2019-12-15 07:00:00 2.8 4 Noroeste 9 Noroeste 0 -- -- 100
2019-12-15 06:00:00 3.5 5 Noroeste 8 Noroeste 0 -- -- 100
2019-12-15 05:00:00 3.7 3 Noroeste 9 Norte 0 -- -- 99
2019-12-15 04:00:00 4.2 3 Oeste 8 Norte 0 -- -- 99
2019-12-15 03:00:00 5.2 0 Calma 5 Norte 0 -- -- 98
2019-12-15 02:00:00 5.9 0 Calma 9 Noroeste 0 -- -- 96
2019-12-15 01:00:00 6.3 6 Oeste 10 Oeste 0 -- -- 94
2019-12-15 00:00:00 6.8 6 Oeste 8 Oeste 0 -- -- 93
2019-12-14 23:00:00 7.9 6 Noroeste 10 Oeste 0 -- -- 91
2019-12-14 22:00:00 8.6 5 Noroeste 9 Oeste 0 -- -- 89
2019-12-14 21:00:00 9.4 4 Noroeste 10 Norte 0 -- -- 87
2019-12-14 20:00:00 9.9 7 Norte 10 Norte 0 -- -- 86
2019-12-14 19:00:00 10.8 3 Noroeste 6 Oeste 0 -- -- 80
2019-12-14 18:00:00 12 0 Calma 12 Sur 0 -- -- 73
2019-12-14 17:00:00 13 9 Sur 17 Sudeste 0 -- -- 71
2019-12-14 16:00:00 15 11 Sudeste 17 Sudeste 0 -- -- 62
2019-12-14 15:00:00 14.5 14 Sudeste 15 Sudeste 0 -- -- 64
2019-12-14 14:00:00 14.7 10 Sudeste 11 Sudeste 0 -- -- 63
2019-12-14 13:00:00 13.4 6 Sudeste 10 Sudeste 0 -- -- 69
2019-12-14 12:00:00 10.9 3 Sudoeste 9 Noroeste 0 -- -- 78
2019-12-14 11:00:00 8.3 3 Norte 12 Noroeste 0 -- -- 84
2019-12-14 10:00:00 6.9 2 Sudoeste 16 Noroeste 0 -- -- 90
2019-12-14 09:00:00 4.5 9 Noroeste 16 Norte 0 -- -- 98
2019-12-14 08:00:00 3.9 6 Noroeste 14 Norte 0 -- -- 96
2019-12-14 07:00:00 5.1 5 Norte 18 Norte 0 -- -- 94
2019-12-14 06:00:00 4.9 14 Norte 22 Norte 0 -- -- 95
2019-12-14 05:00:00 5.8 7 Norte 24 Norte 0 -- -- 92
2019-12-14 04:00:00 6.5 17 Norte 23 Norte 0 -- -- 90
2019-12-14 03:00:00 6.7 18 Norte 23 Norte 0 -- -- 89
2019-12-14 02:00:00 7.5 7 Nordeste 21 Noroeste 0 -- -- 86
2019-12-14 01:00:00 10.2 11 Norte 40 Noroeste 0 -- -- 74
2019-12-14 00:00:00 11.8 14 Noroeste 50 Noroeste 0 -- -- 62
2019-12-13 23:00:00 10 6 Sudeste 24 Noroeste 0 -- -- 78
2019-12-13 22:00:00 11.8 18 Noroeste 38 Oeste 0 -- -- 74
2019-12-13 21:00:00 10.5 18 Norte 28 Noroeste 0 -- -- 83
2019-12-13 20:00:00 10.9 16 Norte 41 Noroeste 0 -- -- 82
2019-12-13 19:00:00 11.9 22 Noroeste 40 Noroeste 0 -- -- 79
2019-12-13 18:00:00 12.4 22 Oeste 41 Oeste 0 -- -- 74
2019-12-13 17:00:00 13.1 30 Oeste 46 Oeste 0 -- -- 71
2019-12-13 16:00:00 14.1 34 Oeste 52 Oeste 0 -- -- 68
2019-12-13 15:00:00 15.4 32 Oeste 48 Oeste 0 -- -- 66
2019-12-13 14:00:00 14.2 22 Noroeste 51 Oeste 0 -- -- 75
2019-12-13 13:00:00 14.1 28 Oeste 40 Oeste 0 -- -- 72
2019-12-13 12:00:00 9.1 10 Norte 16 Nordeste 0.4 -- -- 100
2019-12-13 11:00:00 6.4 5 Este 9 Nordeste 0.8 -- -- 100
2019-12-13 10:00:00 4.6 3 Norte 6 Norte 0.4 -- -- 100
2019-12-13 09:00:00 3 3 Oeste 7 Oeste 0.8 -- -- 100
2019-12-13 08:00:00 2.7 4 Noroeste 6 Oeste 1.2 -- -- 100
2019-12-13 07:00:00 2.5 0 Calma 5 Sur 1.4 -- -- 100
2019-12-13 06:00:00 2.3 2 Noroeste 6 Sudoeste 1.2 -- -- 100
2019-12-13 05:00:00 2.1 3 Nordeste 7 Oeste 1 -- -- 100
2019-12-13 04:00:00 2 2 Norte 5 Oeste 0.6 -- -- 100
2019-12-13 03:00:00 1.9 4 Noroeste 8 Oeste 1.2 -- -- 100
2019-12-13 02:00:00 1.8 4 Noroeste 8 Norte 0.8 -- -- 100
2019-12-13 01:00:00 1.6 6 Norte 9 Norte 0.6 -- -- 99
2019-12-13 00:00:00 1.5 5 Norte 9 Noroeste 1.6 -- -- 99
2019-12-12 23:00:00 1.5 4 Oeste 10 Noroeste 1.2 -- -- 99
2019-12-12 22:00:00 1.3 7 Norte 12 Noroeste 1.4 -- -- 98
2019-12-12 21:00:00 1.5 12 Norte 17 Norte 1 -- -- 98
2019-12-12 20:00:00 2.3 6 Noroeste 12 Oeste 1.8 -- -- 98
2019-12-12 19:00:00 3.1 9 Oeste 13 Oeste 2.2 -- -- 96
2019-12-12 18:00:00 4 8 Oeste 12 Oeste 2.8 -- -- 96
2019-12-12 17:00:00 5 8 Sudoeste 11 Oeste 2 -- -- 92
2019-12-12 16:00:00 6.2 0 Calma 8 Sur 0.4 -- -- 86
2019-12-12 15:00:00 6.9 3 Sudoeste 13 Sudoeste 0 -- -- 84
2019-12-12 14:00:00 7.3 9 Sudoeste 21 Sur 0 -- -- 78
2019-12-12 13:00:00 6.8 15 Sudeste 20 Sudeste 0 -- -- 76
2019-12-12 12:00:00 5.1 13 Este 18 Este 0 -- -- 80
2019-12-12 11:00:00 5.1 5 Sudeste 10 Este 0 -- -- 79
2019-12-12 10:00:00 2.6 2 Sur 10 Norte 0 -- -- 89
2019-12-12 09:00:00 0.7 7 Nordeste 19 Norte 0 -- -- 93
2019-12-12 08:00:00 0.2 6 Norte 13 Norte 0 -- -- 94
2019-12-12 07:00:00 0.2 4 Norte 12 Norte 0 -- -- 95
2019-12-12 06:00:00 0.5 10 Norte 14 Norte 0 -- -- 93
2019-12-12 05:00:00 0.7 5 Oeste 10 Norte 0 -- -- 91
2019-12-12 04:00:00 1.3 2 Sudoeste 12 Noroeste 0 -- -- 87
2019-12-12 03:00:00 1.4 7 Norte 10 Norte 0 -- -- 88
2019-12-12 02:00:00 1.9 7 Nordeste 13 Norte 0 -- -- 84
2019-12-12 01:00:00 2.7 7 Norte 15 Norte 0 -- -- 78
2019-12-12 00:00:00 3.2 8 Este 17 Norte 0 -- -- 76
2019-12-11 23:00:00 4.4 8 Este 18 Oeste 0 -- -- 71
2019-12-11 22:00:00 5.7 5 Nordeste 13 Sudeste 0 -- -- 63
2019-12-11 21:00:00 5.9 8 Sudeste 33 Oeste 0 -- -- 62
2019-12-11 20:00:00 6.9 14 Noroeste 53 Oeste 0 -- -- 59
2019-12-11 19:00:00 8 30 Oeste 45 Oeste 0 -- -- 53
2019-12-11 18:00:00 9.1 28 Noroeste 44 Noroeste 0 -- -- 43
2019-12-11 17:00:00 10.8 22 Oeste 32 Oeste 0 -- -- 46
2019-12-11 16:00:00 10.8 4 Este 10 Sudeste 0 -- -- 67
2019-12-11 15:00:00 8.1 6 Este 13 Sudeste 0 -- -- 77
2019-12-11 14:00:00 7 8 Sudeste 19 Sur 0 -- -- 80
2019-12-11 13:00:00 5.5 12 Sudeste 20 Sudeste 0 -- -- 80
2019-12-11 12:00:00 5.8 4 Sur 7 Sudeste 0 -- -- 79
2019-12-11 11:00:00 3.7 3 Oeste 8 Oeste 0 -- -- 89
2019-12-11 10:00:00 2.4 0 Calma 8 Oeste 0 -- -- 94
2019-12-11 09:00:00 1.6 6 Nordeste 9 Nordeste 0 -- -- 95
2019-12-11 08:00:00 1.4 5 Nordeste 13 Este 0 -- -- 95
2019-12-11 07:00:00 1.4 7 Noroeste 15 Oeste 0 -- -- 93
2019-12-11 06:00:00 1.7 2 Norte 9 Oeste 0 -- -- 92
2019-12-11 05:00:00 2.1 4 Noroeste 8 Noroeste 0 -- -- 91
2019-12-11 04:00:00 2.2 2 Sudeste 5 Este 0 -- -- 91
2019-12-11 03:00:00 2.3 4 Noroeste 9 Oeste 0 -- -- 90
2019-12-11 02:00:00 2.4 3 Noroeste 11 Noroeste 0 -- -- 88
2019-12-11 01:00:00 2.4 8 Noroeste 11 Norte 0 -- -- 89
2019-12-11 00:00:00 3 8 Noroeste 12 Noroeste 0 -- -- 86
2019-12-10 23:00:00 3.7 5 Noroeste 13 Noroeste 0 -- -- 84
2019-12-10 22:00:00 4 4 Noroeste 10 Norte 0 -- -- 86
2019-12-10 21:00:00 5 7 Noroeste 10 Noroeste 0 -- -- 81
2019-12-10 20:00:00 5.2 5 Norte 9 Norte 0 -- -- 82
2019-12-10 19:00:00 6 8 Norte 10 Norte 0 -- -- 77
2019-12-10 18:00:00 7.8 4 Noroeste 8 Norte 0 -- -- 71
2019-12-10 17:00:00 9.9 5 Este 20 Sudeste 0 -- -- 63
2019-12-10 16:00:00 11.6 14 Sudeste 17 Sudeste 0 -- -- 55
2019-12-10 15:00:00 12.1 9 Sudeste 20 Sudeste 0 -- -- 51
2019-12-10 14:00:00 11.6 17 Sudeste 21 Sudeste 0 -- -- 53
2019-12-10 13:00:00 9.3 11 Sudeste 14 Sudeste 0 -- -- 57
2019-12-10 12:00:00 8.9 6 Sudeste 17 Sudoeste 0 -- -- 60
2019-12-10 11:00:00 8.4 8 Este 15 Sur 0 -- -- 60
2019-12-10 10:00:00 5.9 8 Oeste 22 Sur 0 -- -- 67
2019-12-10 09:00:00 4.3 10 Sudeste 36 Sur 0 -- -- 71
2019-12-10 08:00:00 2.9 18 Sudeste 31 Sudeste 0 -- -- 81
2019-12-10 07:00:00 3.6 17 Sudeste 37 Sur 0 -- -- 78
2019-12-10 06:00:00 4.8 17 Sur 34 Sur 0 -- -- 68
2019-12-10 05:00:00 7.4 9 Sudeste 56 Norte 0 -- -- 48
2019-12-10 04:00:00 12.6 31 Norte 53 Norte 0 -- -- 24
2019-12-10 03:00:00 11.7 28 Norte 44 Norte 0 -- -- 30
2019-12-10 02:00:00 7.7 19 Noroeste 41 Norte 0 -- -- 45
2019-12-10 01:00:00 10.7 17 Norte 43 Norte 0 -- -- 32
2019-12-10 00:00:00 10.5 16 Norte 45 Norte 0 -- -- 37
2019-12-09 23:00:00 9 20 Noroeste 34 Norte 0 -- -- 42
2019-12-09 22:00:00 9.1 17 Noroeste 42 Oeste 0 -- -- 50
2019-12-09 21:00:00 9.2 18 Sudoeste 26 Sudoeste 0 -- -- 48
2019-12-09 20:00:00 9.4 17 Oeste 39 Norte 0 -- -- 47
2019-12-09 19:00:00 10.5 18 Noroeste 41 Noroeste 0 -- -- 40
2019-12-09 18:00:00 10.6 27 Noroeste 50 Noroeste 0 -- -- 45
2019-12-09 17:00:00 12.2 26 Noroeste 42 Noroeste 0 -- -- 41
2019-12-09 16:00:00 13.5 25 Noroeste 42 Noroeste 0 -- -- 40
2019-12-09 15:00:00 14 12 Norte 36 Oeste 0 -- -- 39
2019-12-09 14:00:00 13.3 32 Oeste 51 Oeste 0 -- -- 45
2019-12-09 13:00:00 12.6 18 Noroeste 31 Oeste 0 -- -- 55
2019-12-09 12:00:00 9.2 13 Sudeste 21 Sudeste 0 -- -- 76
2019-12-09 11:00:00 5.4 6 Este 13 Este 0 -- -- 91
2019-12-09 10:00:00 2 7 Nordeste 14 Nordeste 0 -- -- 100
2019-12-09 09:00:00 0.4 6 Nordeste 14 Nordeste 0 -- -- 100
2019-12-09 08:00:00 0 4 Norte 15 Norte 0 -- -- 100
2019-12-09 07:00:00 0.2 13 Norte 22 Norte 0 -- -- 100
2019-12-09 06:00:00 2 9 Norte 12 Norte 0 -- -- 100
2019-12-09 05:00:00 2.2 8 Norte 14 Norte 0 -- -- 100
2019-12-09 04:00:00 3.4 7 Norte 11 Norte 0 -- -- 100
2019-12-09 03:00:00 4.1 3 Norte 9 Noroeste 0.2 -- -- 100
2019-12-09 02:00:00 4.6 4 Noroeste 9 Norte 0 -- -- 100
2019-12-09 01:00:00 5.2 3 Norte 10 Oeste 0 -- -- 100
2019-12-09 00:00:00 5.7 4 Norte 10 Sudoeste 0 -- -- 100
2019-12-08 23:00:00 6 3 Oeste 8 Sudeste 0 -- -- 100
2019-12-08 22:00:00 6 2 Nordeste 8 Sudeste 0 -- -- 100
2019-12-08 21:00:00 6 3 Nordeste 10 Sudeste 0 -- -- 99
2019-12-08 20:00:00 6.2 6 Este 11 Sudeste 0 -- -- 99
2019-12-08 19:00:00 6.4 8 Sudeste 13 Sudeste 0 -- -- 97
2019-12-08 18:00:00 6.7 11 Sudeste 15 Sudeste 0 -- -- 95
2019-12-08 17:00:00 7.3 12 Sudeste 17 Sudeste 0 -- -- 90
2019-12-08 16:00:00 8.5 13 Sudeste 16 Sudeste 0 -- -- 85
2019-12-08 15:00:00 10.5 8 Sudeste 13 Sudeste 0 -- -- 76
2019-12-08 14:00:00 10.2 8 Sudeste 11 Sudeste 0 -- -- 75
2019-12-08 13:00:00 7.5 9 Sudeste 14 Sudeste 0 -- -- 81
2019-12-08 12:00:00 6.1 4 Este 8 Este 0 -- -- 89
2019-12-08 11:00:00 2.7 2 Oeste 6 Noroeste 0 -- -- 100
2019-12-08 10:00:00 0.6 3 Sudeste 9 Norte 0.2 -- -- 100
2019-12-08 09:00:00 -1.5 5 Noroeste 7 Noroeste 0 -- -- 100
2019-12-08 08:00:00 -1.7 3 Noroeste 8 Norte 0 -- -- 100
2019-12-08 07:00:00 -1.3 2 Nordeste 7 Norte 0 -- -- 100
2019-12-08 06:00:00 -1.3 4 Noroeste 8 Norte 0 -- -- 100
2019-12-08 05:00:00 -0.8 4 Noroeste 8 Norte 0 -- -- 100
2019-12-08 04:00:00 -0.6 0 Calma 5 Noroeste 0 -- -- 100
2019-12-08 03:00:00 -0.1 4 Noroeste 6 Norte 0 -- -- 100
2019-12-08 02:00:00 0.9 6 Norte 6 Norte 0 -- -- 99
2019-12-08 01:00:00 1.6 0 Calma 8 Noroeste 0 -- -- 98
2019-12-08 00:00:00 2.3 4 Noroeste 11 Noroeste 0 -- -- 98
2019-12-07 23:00:00 2.9 10 Noroeste 13 Noroeste 0 -- -- 98
2019-12-07 22:00:00 3.7 4 Noroeste 11 Noroeste 0 -- -- 97
2019-12-07 21:00:00 4.4 7 Noroeste 10 Norte 0 -- -- 94
2019-12-07 20:00:00 5.4 3 Noroeste 12 Norte 0 -- -- 91
2019-12-07 19:00:00 6.9 4 Noroeste 8 Noroeste 0 -- -- 87
2019-12-07 18:00:00 8.5 6 Noroeste 11 Norte 0 -- -- 81
2019-12-07 17:00:00 11.6 8 Sudeste 9 Sudeste 0 -- -- 70
2019-12-07 16:00:00 12.4 6 Sudeste 10 Sudeste 0 -- -- 63
2019-12-07 15:00:00 12 8 Sudeste 10 Sudeste 0 -- -- 64
2019-12-07 14:00:00 11.4 4 Sudeste 7 Sudeste 0 -- -- 66
2019-12-07 13:00:00 9.5 3 Este 7 Este 0 -- -- 72
2019-12-07 12:00:00 7.3 3 Sur 8 Este 0 -- -- 81
2019-12-07 11:00:00 4.7 0 Calma 7 Este 0 -- -- 93
2019-12-07 10:00:00 2 0 Calma 3 Nordeste 0 -- -- 100
2019-12-07 09:00:00 0.4 3 Noroeste 10 Noroeste 0 -- -- 100
2019-12-07 08:00:00 0.2 4 Noroeste 8 Noroeste 0 -- -- 100
2019-12-07 07:00:00 0.2 6 Noroeste 10 Noroeste 0 -- -- 100
2019-12-07 06:00:00 0.7 8 Noroeste 13 Noroeste 0 -- -- 99
2019-12-07 05:00:00 1 6 Norte 9 Oeste 0 -- -- 99
2019-12-07 04:00:00 1.4 5 Noroeste 9 Noroeste 0 -- -- 98
2019-12-07 03:00:00 1.8 4 Norte 12 Norte 0 -- -- 98
2019-12-07 02:00:00 2.5 3 Noroeste 11 Norte 0 -- -- 96
2019-12-07 01:00:00 3 8 Noroeste 13 Norte 0 -- -- 96
2019-12-07 00:00:00 3.5 9 Noroeste 11 Noroeste 0 -- -- 96
2019-12-06 23:00:00 4.1 6 Noroeste 12 Noroeste 0 -- -- 94
2019-12-06 22:00:00 4.6 9 Noroeste 15 Noroeste 0 -- -- 93
2019-12-06 21:00:00 5.1 6 Oeste 12 Noroeste 0 -- -- 91
2019-12-06 20:00:00 6 7 Noroeste 13 Noroeste 0 -- -- 90
2019-12-06 19:00:00 7.1 8 Noroeste 12 Noroeste 0 -- -- 87
2019-12-06 18:00:00 8.8 5 Norte 9 Norte 0 -- -- 84
2019-12-06 17:00:00 11.2 3 Noroeste 5 Noroeste 0 -- -- 75
2019-12-06 16:00:00 10.3 4 Sur 12 Sudeste 0 -- -- 76
2019-12-06 15:00:00 11 7 Sudeste 13 Sudeste 0 -- -- 74
2019-12-06 14:00:00 11 11 Sudeste 14 Sudeste 0 -- -- 74
2019-12-06 13:00:00 11.4 3 Sur 7 Sur 0 -- -- 71
2019-12-06 12:00:00 9.9 4 Sur 7 Sur 0 -- -- 78
2019-12-06 11:00:00 6.7 2 Oeste 4 Oeste 0 -- -- 90
2019-12-06 10:00:00 4.3 0 Calma 9 Norte 0 -- -- 100
2019-12-06 09:00:00 2.3 4 Noroeste 6 Noroeste 0 -- -- 100
2019-12-06 08:00:00 2.9 4 Noroeste 6 Noroeste 0 -- -- 99
2019-12-06 07:00:00 3.6 2 Norte 4 Nordeste 0 -- -- 98
2019-12-06 06:00:00 4.2 3 Este 4 Nordeste 0 -- -- 97
2019-12-06 05:00:00 4.7 0 Calma 5 Este 0 -- -- 95
2019-12-06 04:00:00 4.5 6 Sudeste 8 Sudeste 0 -- -- 96
2019-12-06 03:00:00 5.5 4 Noroeste 6 Noroeste 0 -- -- 92
2019-12-06 02:00:00 5 6 Noroeste 14 Norte 0 -- -- 94
2019-12-06 01:00:00 5.1 8 Norte 15 Norte 0 -- -- 92
2019-12-06 00:00:00 4.7 10 Norte 14 Norte 0 -- -- 94
2019-12-05 23:00:00 4.9 9 Norte 14 Norte 0 -- -- 94
2019-12-05 22:00:00 5.2 6 Noroeste 14 Noroeste 0 -- -- 94
2019-12-05 21:00:00 5.7 11 Oeste 13 Oeste 0 -- -- 94
2019-12-05 20:00:00 7 6 Noroeste 10 Noroeste 0 -- -- 90
2019-12-05 19:00:00 8 7 Noroeste 13 Norte 0 -- -- 86
2019-12-05 18:00:00 9.5 9 Norte 13 Noroeste 0 -- -- 81
2019-12-05 17:00:00 11.1 8 Sudeste 17 Sudeste 0 -- -- 75
2019-12-05 16:00:00 12.3 14 Sudeste 18 Sudeste 0 -- -- 64
2019-12-05 15:00:00 13.5 3 Sudeste 7 Este 0 -- -- 64
2019-12-05 14:00:00 12.2 0 Calma 4 Norte 0 -- -- 62
2019-12-05 13:00:00 10.1 2 Norte 7 Norte 0 -- -- 73
2019-12-05 12:00:00 8.6 2 Noroeste 5 Oeste 0 -- -- 82
2019-12-05 11:00:00 7.3 3 Oeste 9 Nordeste 0 -- -- 88
2019-12-05 10:00:00 5.7 4 Noroeste 7 Oeste 0 -- -- 95
2019-12-05 09:00:00 5 5 Norte 9 Noroeste 0 -- -- 93
2019-12-05 08:00:00 5.3 6 Norte 10 Noroeste 0 -- -- 91
2019-12-05 07:00:00 4.9 7 Oeste 10 Norte 0 -- -- 93
2019-12-05 06:00:00 4.8 6 Norte 11 Oeste 0 -- -- 93
2019-12-05 05:00:00 5 4 Noroeste 8 Noroeste 0 -- -- 92
2019-12-05 04:00:00 5 3 Norte 8 Norte 0 -- -- 92
2019-12-05 03:00:00 5.1 5 Sudeste 9 Sudeste 0 -- -- 91
2019-12-05 02:00:00 5.5 4 Noroeste 12 Noroeste 0 -- -- 89
2019-12-05 01:00:00 5.1 6 Noroeste 12 Noroeste 0 -- -- 92
2019-12-05 00:00:00 5 5 Norte 12 Oeste 0 -- -- 92
2019-12-04 23:00:00 5.1 9 Norte 11 Norte 0 -- -- 95
2019-12-04 22:00:00 6 3 Nordeste 9 Norte 0 -- -- 90
2019-12-04 21:00:00 7 2 Sur 11 Oeste 0 -- -- 86
2019-12-04 20:00:00 7 8 Oeste 16 Norte 0 -- -- 85
2019-12-04 19:00:00 7.3 6 Norte 11 Noroeste 0 -- -- 85
2019-12-04 18:00:00 7.4 3 Sudeste 8 Este 0 -- -- 81
2019-12-04 17:00:00 8.1 4 Sur 12 Sudeste 0 -- -- 77
2019-12-04 16:00:00 8.3 2 Norte 17 Sudeste 0 -- -- 74
2019-12-04 15:00:00 8.3 11 Sudeste 14 Sudeste 0 -- -- 74
2019-12-04 14:00:00 7.9 4 Este 15 Sudeste 0 -- -- 78
2019-12-04 13:00:00 7.1 10 Oeste 13 Oeste 0 -- -- 80
2019-12-04 12:00:00 6.2 2 Noroeste 6 Noroeste 0 -- -- 83
2019-12-04 11:00:00 4.9 3 Sudeste 15 Noroeste 0 -- -- 83
2019-12-04 10:00:00 3.6 5 Noroeste 18 Oeste 0 -- -- 87
2019-12-04 09:00:00 1 11 Oeste 20 Norte 0 -- -- 92
2019-12-04 08:00:00 0.7 7 Noroeste 12 Oeste 0 -- -- 93
2019-12-04 07:00:00 0 6 Noroeste 12 Noroeste 0 -- -- 97
2019-12-04 06:00:00 0.3 8 Oeste 13 Norte 0 -- -- 96
2019-12-04 05:00:00 0 9 Noroeste 13 Noroeste 0 -- -- 97
2019-12-04 04:00:00 0.3 5 Noroeste 8 Noroeste 0 -- -- 96
2019-12-04 03:00:00 0.9 0 Calma 9 Oeste 0 -- -- 94
2019-12-04 02:00:00 1.5 2 Oeste 11 Norte 0 -- -- 92
2019-12-04 01:00:00 1.9 5 Noroeste 14 Norte 0 -- -- 90
2019-12-04 00:00:00 1.8 9 Noroeste 17 Norte 0 -- -- 91
2019-12-03 23:00:00 1.8 10 Noroeste 15 Noroeste 0 -- -- 91
2019-12-03 22:00:00 1.7 6 Noroeste 15 Noroeste 0 -- -- 93
2019-12-03 21:00:00 2.3 6 Noroeste 13 Noroeste 0 -- -- 90
2019-12-03 20:00:00 2.9 10 Noroeste 14 Noroeste 0 -- -- 91
2019-12-03 19:00:00 4.2 8 Noroeste 11 Norte 0 -- -- 87
2019-12-03 18:00:00 5.6 5 Nordeste 15 Sudeste 0 -- -- 83
2019-12-03 17:00:00 7.8 15 Sudeste 18 Sudeste 0 -- -- 74
2019-12-03 16:00:00 9.5 9 Sudeste 12 Sur 0 -- -- 63
2019-12-03 15:00:00 9.6 6 Sudeste 8 Sudeste 0 -- -- 60
2019-12-03 14:00:00 7.9 4 Sudeste 12 Sudeste 0 -- -- 68
2019-12-03 13:00:00 7 6 Sudeste 10 Sudeste 0 -- -- 68
2019-12-03 12:00:00 4.9 8 Sudeste 11 Sudeste 0 -- -- 78
2019-12-03 11:00:00 3.2 7 Sudeste 10 Sudeste 0 -- -- 84
2019-12-03 10:00:00 1 2 Sudoeste 6 Norte 0 -- -- 95
2019-12-03 09:00:00 -1.3 3 Norte 5 Nordeste 0 -- -- 99
2019-12-03 08:00:00 -1.4 5 Nordeste 11 Noroeste 0 -- -- 97
2019-12-03 07:00:00 -1 4 Noroeste 12 Noroeste 0 -- -- 96
2019-12-03 06:00:00 -0.6 3 Oeste 9 Norte 0 -- -- 96
2019-12-03 05:00:00 -0.4 8 Noroeste 12 Noroeste 0 -- -- 96
2019-12-03 04:00:00 -0.3 5 Noroeste 12 Noroeste 0 -- -- 94
2019-12-03 03:00:00 0.3 2 Noroeste 12 Noroeste 0 -- -- 94
2019-12-03 02:00:00 1.1 6 Noroeste 10 Noroeste 0 -- -- 91
2019-12-03 01:00:00 1.4 4 Noroeste 14 Noroeste 0 -- -- 92
2019-12-03 00:00:00 1.9 8 Noroeste 18 Noroeste 0 -- -- 91
2019-12-02 23:00:00 2.1 4 Noroeste 15 Norte 0 -- -- 92
2019-12-02 22:00:00 3.5 4 Noroeste 12 Noroeste 0 -- -- 87
2019-12-02 21:00:00 3.4 8 Noroeste 14 Noroeste 0 -- -- 89
2019-12-02 20:00:00 4.5 8 Noroeste 14 Noroeste 0 -- -- 87
2019-12-02 19:00:00 5.7 6 Noroeste 13 Noroeste 0 -- -- 81
2019-12-02 18:00:00 7.4 8 Noroeste 12 Norte 0 -- -- 76
2019-12-02 17:00:00 11.6 8 Sudeste 10 Sudeste 0 -- -- 56
2019-12-02 16:00:00 12.5 8 Sudeste 10 Sudeste 0 -- -- 51
2019-12-02 15:00:00 12 10 Sudeste 13 Sudeste 0 -- -- 46
2019-12-02 14:00:00 11.6 7 Sudeste 10 Sudeste 0 -- -- 57
2019-12-02 13:00:00 10.1 3 Sudeste 9 Sur 0 -- -- 61
2019-12-02 12:00:00 7.8 3 Sur 7 Sur 0 -- -- 74
2019-12-02 11:00:00 4.7 3 Sur 6 Este 0 -- -- 89
2019-12-02 10:00:00 1.8 2 Noroeste 6 Oeste 0 -- -- 100
2019-12-02 09:00:00 0.3 0 Calma 5 Norte 0 -- -- 100
2019-12-02 08:00:00 -0.2 3 Nordeste 5 Nordeste 0 -- -- 99
2019-12-02 07:00:00 -0.1 3 Nordeste 6 Nordeste 0 -- -- 98
2019-12-02 06:00:00 0.7 2 Noroeste 13 Norte 0 -- -- 98
2019-12-02 05:00:00 0.6 7 Noroeste 10 Noroeste 0 -- -- 97
2019-12-02 04:00:00 1 6 Norte 9 Norte 0 -- -- 98
2019-12-02 03:00:00 1.2 6 Norte 9 Norte 0 -- -- 98
2019-12-02 02:00:00 1.8 8 Norte 17 Norte 0 -- -- 96
2019-12-02 01:00:00 2.5 3 Noroeste 16 Noroeste 0 -- -- 95
2019-12-02 00:00:00 2.5 8 Noroeste 13 Noroeste 0 -- -- 96
2019-12-01 23:00:00 3.1 6 Noroeste 12 Norte 0 -- -- 96
2019-12-01 22:00:00 3.9 7 Noroeste 15 Norte 0 -- -- 93
2019-12-01 21:00:00 4.1 7 Noroeste 12 Norte 0 -- -- 94
2019-12-01 20:00:00 4.8 9 Noroeste 13 Noroeste 0 -- -- 93
2019-12-01 19:00:00 6 4 Noroeste 11 Noroeste 0 -- -- 90
2019-12-01 18:00:00 7.3 12 Noroeste 14 Noroeste 0 -- -- 87
2019-12-01 17:00:00 11.5 3 Sudeste 9 Sudeste 0 -- -- 66
2019-12-01 16:00:00 12.4 5 Sudeste 10 Sur 0 -- -- 62
2019-12-01 15:00:00 12 9 Sudeste 13 Sudeste 0 -- -- 65
2019-12-01 14:00:00 11.7 6 Sudeste 9 Sudeste 0 -- -- 72
2019-12-01 13:00:00 10.8 6 Sudeste 10 Sur 0 -- -- 79
2019-12-01 12:00:00 9.1 5 Sudeste 9 Sur 0 -- -- 85
2019-12-01 11:00:00 8.1 4 Este 10 Este 0 -- -- 91
2019-12-01 10:00:00 5.5 0 Calma 6 Oeste 0 -- -- 100
2019-12-01 09:00:00 4.1 4 Oeste 10 Noroeste 0 -- -- 100
2019-12-01 08:00:00 3.6 9 Noroeste 12 Noroeste 0 -- -- 100
2019-12-01 07:00:00 3.9 7 Oeste 14 Oeste 0 -- -- 100
2019-12-01 06:00:00 4.4 12 Oeste 15 Oeste 0 -- -- 100
2019-12-01 05:00:00 5.1 7 Noroeste 11 Oeste 0 -- -- 100
2019-12-01 04:00:00 6.4 3 Norte 8 Sudoeste 0 -- -- 99
2019-12-01 03:00:00 7.1 5 Norte 22 Oeste 0 -- -- 100
2019-12-01 02:00:00 7.5 10 Sudeste 17 Sudeste 0.2 -- -- 100
2019-12-01 01:00:00 7.6 4 Norte 9 Sur 0 -- -- 100
2019-12-01 00:00:00 7.8 2 Sudeste 15 Sudoeste 0.2 -- -- 100
2019-11-30 23:00:00 7.7 6 Nordeste 22 Este 0 -- -- 99
2019-11-30 22:00:00 7.8 12 Este 26 Oeste 3.2 -- -- 99
2019-11-30 21:00:00 8 3 Sudeste 11 Este 1 -- -- 96
2019-11-30 20:00:00 8.3 5 Sudeste 16 Nordeste 0.2 -- -- 91
2019-11-30 19:00:00 8.6 6 Oeste 16 Oeste 0 -- -- 88
2019-11-30 18:00:00 8.9 4 Oeste 7 Norte 0 -- -- 86
2019-11-30 17:00:00 9.1 4 Noroeste 7 Oeste 0 -- -- 81
2019-11-30 16:00:00 8.8 5 Oeste 7 Sudoeste 0 -- -- 80
2019-11-30 15:00:00 8.4 3 Norte 6 Sudoeste 0 -- -- 83
2019-11-30 14:00:00 7.8 0 Calma 5 Sudeste 0 -- -- 82
2019-11-30 13:00:00 7.5 2 Oeste 6 Este 0 -- -- 83
2019-11-30 12:00:00 6.7 0 Calma 4 Oeste 0 -- -- 85
2019-11-30 11:00:00 6 3 Oeste 8 Noroeste 0 -- -- 84
2019-11-30 10:00:00 4.8 4 Noroeste 14 Oeste 0 -- -- 88
2019-11-30 09:00:00 3.6 3 Norte 6 Este 0 -- -- 94
2019-11-30 08:00:00 3.5 2 Sudoeste 7 Oeste 0 -- -- 92
2019-11-30 07:00:00 3.2 3 Oeste 12 Noroeste 0 -- -- 91
2019-11-30 06:00:00 2.7 8 Noroeste 12 Noroeste 0 -- -- 97
2019-11-30 05:00:00 2.6 5 Noroeste 10 Oeste 0 -- -- 97
2019-11-30 04:00:00 3.4 4 Oeste 13 Noroeste 0 -- -- 90
2019-11-30 03:00:00 4.2 8 Noroeste 12 Noroeste 0 -- -- 92
2019-11-30 02:00:00 4.3 11 Norte 14 Norte 0 -- -- 95
2019-11-30 01:00:00 4.9 6 Oeste 12 Noroeste 0 -- -- 91
2019-11-30 00:00:00 5.4 12 Norte 15 Norte 0 -- -- 91
2019-11-29 23:00:00 5.6 11 Norte 17 Norte 0 -- -- 92
2019-11-29 22:00:00 6.4 6 Norte 14 Norte 0 -- -- 91
2019-11-29 21:00:00 7 7 Noroeste 16 Noroeste 0 -- -- 91
2019-11-29 20:00:00 8.1 12 Noroeste 21 Norte 0 -- -- 87
2019-11-29 19:00:00 9.3 13 Norte 21 Norte 0 -- -- 85
2019-11-29 18:00:00 11.3 10 Noroeste 15 Noroeste 0 -- -- 77
2019-11-29 17:00:00 14.7 8 Sudeste 10 Sudeste 0 -- -- 61
2019-11-29 16:00:00 16.1 6 Sudeste 8 Sur 0 -- -- 59
2019-11-29 15:00:00 16.1 5 Sudeste 12 Este 0 -- -- 62
2019-11-29 14:00:00 15.3 7 Sudeste 11 Sudeste 0 -- -- 70
2019-11-29 13:00:00 13.5 4 Sudeste 15 Sudeste 0 -- -- 80
2019-11-29 12:00:00 11.9 10 Sudeste 13 Sudeste 0 -- -- 91
2019-11-29 11:00:00 9 3 Oeste 7 Sudoeste 0 -- -- 100
2019-11-29 10:00:00 8.5 3 Oeste 11 Noroeste 0 -- -- 100
2019-11-29 09:00:00 8 7 Noroeste 15 Norte 0 -- -- 100
2019-11-29 08:00:00 8 8 Noroeste 14 Norte 0 -- -- 100
2019-11-29 07:00:00 8.5 2 Oeste 13 Norte 0 -- -- 100
2019-11-29 06:00:00 8.2 9 Norte 14 Norte 0 -- -- 99
2019-11-29 05:00:00 8.4 9 Norte 13 Norte 0 -- -- 100
2019-11-29 04:00:00 8.6 11 Norte 13 Norte 0 -- -- 100
2019-11-29 03:00:00 9.2 5 Oeste 7 Noroeste 0 -- -- 100
2019-11-29 02:00:00 9.2 4 Noroeste 6 Noroeste 0 -- -- 100
2019-11-29 01:00:00 9.3 4 Noroeste 6 Oeste 0.8 -- -- 100
2019-11-29 00:00:00 9.4 2 Noroeste 7 Norte 0.6 -- -- 100
2019-11-28 23:00:00 9.4 4 Noroeste 11 Norte 0.4 -- -- 100
2019-11-28 22:00:00 9.4 4 Norte 7 Noroeste 1 -- -- 99
2019-11-28 21:00:00 9.6 0 Calma 9 Oeste 0.4 -- -- 98
2019-11-28 20:00:00 10 2 Oeste 8 Norte 0.6 -- -- 96
2019-11-28 19:00:00 10.3 8 Noroeste 13 Noroeste 1 -- -- 93
2019-11-28 18:00:00 11.5 4 Sudeste 11 Este 0 -- -- 84
2019-11-28 17:00:00 12.5 8 Sudoeste 15 Sudoeste 0 -- -- 74
2019-11-28 16:00:00 13.2 14 Sudoeste 19 Sudoeste 0 -- -- 73
2019-11-28 15:00:00 12.6 7 Sudeste 16 Sudeste 0 -- -- 80
2019-11-28 14:00:00 12.6 9 Sudeste 16 Sudeste 0 -- -- 79
2019-11-28 13:00:00 11.9 10 Sudeste 15 Sudeste 0 -- -- 81
2019-11-28 12:00:00 10.1 3 Sur 9 Sudeste 0 -- -- 91
2019-11-28 11:00:00 9.8 4 Sudoeste 15 Nordeste 0 -- -- 94
2019-11-28 10:00:00 7.3 2 Sur 10 Nordeste 0 -- -- 100
2019-11-28 09:00:00 6 2 Norte 9 Oeste 0 -- -- 100
2019-11-28 08:00:00 6.2 5 Norte 9 Noroeste 0.2 -- -- 100
2019-11-28 07:00:00 6.4 3 Noroeste 11 Noroeste 0 -- -- 100
2019-11-28 06:00:00 6.5 7 Noroeste 10 Noroeste 0 -- -- 99
2019-11-28 05:00:00 7 3 Noroeste 10 Noroeste 0.2 -- -- 99
2019-11-28 04:00:00 7 3 Noroeste 12 Norte 0 -- -- 100
2019-11-28 03:00:00 7.2 2 Norte 9 Nordeste 0 -- -- 99
2019-11-28 02:00:00 7.4 3 Noroeste 7 Noroeste 0 -- -- 98
2019-11-28 01:00:00 7.4 0 Calma 10 Norte 0.2 -- -- 98
2019-11-28 00:00:00 7.6 8 Norte 9 Norte 0 -- -- 97
2019-11-27 23:00:00 7.9 5 Oeste 8 Noroeste 0 -- -- 95
2019-11-27 22:00:00 8 7 Noroeste 13 Norte 0.2 -- -- 95
2019-11-27 21:00:00 8.3 8 Noroeste 15 Oeste 0 -- -- 93
2019-11-27 20:00:00 9 12 Norte 14 Norte 0.2 -- -- 85
2019-11-27 19:00:00 10.5 9 Oeste 15 Sudoeste 0 -- -- 75
2019-11-27 18:00:00 11.2 8 Oeste 15 Oeste 0 -- -- 67
2019-11-27 17:00:00 11.9 12 Sudoeste 26 Oeste 0 -- -- 64
2019-11-27 16:00:00 12.8 18 Sudoeste 26 Oeste 0 -- -- 62
2019-11-27 15:00:00 14 14 Oeste 25 Oeste 0 -- -- 59
2019-11-27 14:00:00 13.7 16 Oeste 22 Oeste 0 -- -- 60
2019-11-27 06:00:00 -- -- -- -- -- -- -- -- --
2019-11-27 05:00:00 8.1 12 Noroeste 17 Noroeste 1.2 -- -- 100
2019-11-27 04:00:00 8.3 4 Sudeste 10 Este 0 -- -- 100
2019-11-27 03:00:00 8.3 4 Sudoeste 17 Oeste 1.4 -- -- 100
2019-11-27 02:00:00 8.3 2 Este 10 Sudeste 0.6 -- -- 100
2019-11-27 01:00:00 8.3 3 Noroeste 15 Oeste 0.6 -- -- 99
2019-11-27 00:00:00 8.3 6 Oeste 13 Noroeste 0.6 -- -- 98
2019-11-26 23:00:00 8.6 4 Sur 12 Este 0.2 -- -- 97
2019-11-26 22:00:00 9 3 Sudoeste 9 Noroeste 0 -- -- 94
2019-11-26 21:00:00 9.1 5 Noroeste 8 Oeste 0.2 -- -- 92
2019-11-26 20:00:00 9.4 8 Oeste 10 Oeste 0 -- -- 88
2019-11-26 19:00:00 10 3 Norte 8 Sudeste 0 -- -- 86
2019-11-26 18:00:00 10.7 8 Sudeste 10 Este 0 -- -- 80
2019-11-26 17:00:00 12.3 2 Sudoeste 8 Sudoeste 0 -- -- 75
2019-11-26 16:00:00 12.6 0 Calma 6 Nordeste 0 -- -- 71
2019-11-26 15:00:00 12.3 0 Calma 6 Sudoeste 0 -- -- 71
2019-11-26 14:00:00 12 2 Este 7 Nordeste 0 -- -- 71
2019-11-26 13:00:00 11.4 4 Sudeste 12 Sur 0 -- -- 73
2019-11-26 12:00:00 10.6 5 Sudeste 10 Sur 0 -- -- 72
2019-11-26 11:00:00 8 3 Sudoeste 9 Este 0 -- -- 84
2019-11-26 10:00:00 5.3 3 Este 9 Noroeste 0 -- -- 96
2019-11-26 09:00:00 2.5 8 Oeste 10 Oeste 0 -- -- 99
2019-11-26 08:00:00 2.3 3 Oeste 9 Noroeste 0 -- -- 99
2019-11-26 07:00:00 2.4 3 Oeste 9 Norte 0 -- -- 99
2019-11-26 06:00:00 3.3 6 Noroeste 11 Norte 0 -- -- 98
2019-11-26 05:00:00 3.5 8 Noroeste 12 Noroeste 0 -- -- 97
2019-11-26 04:00:00 3.9 8 Noroeste 14 Noroeste 0 -- -- 98
2019-11-26 03:00:00 3.9 8 Norte 14 Norte 0 -- -- 97
2019-11-26 02:00:00 4.5 4 Noroeste 14 Norte 0 -- -- 96
2019-11-26 01:00:00 5.5 5 Noroeste 18 Norte 0 -- -- 93
2019-11-26 00:00:00 6.1 14 Norte 19 Noroeste 0 -- -- 92
2019-11-25 23:00:00 6.5 12 Norte 18 Norte 0 -- -- 91
2019-11-25 22:00:00 6.8 14 Norte 19 Norte 0 -- -- 92
2019-11-25 21:00:00 7.2 10 Norte 16 Norte 0 -- -- 92
2019-11-25 20:00:00 7.9 9 Noroeste 16 Norte 0 -- -- 91
2019-11-25 19:00:00 9.3 10 Noroeste 14 Noroeste 0 -- -- 88
2019-11-25 18:00:00 10.6 12 Noroeste 14 Oeste 0 -- -- 82
2019-11-25 17:00:00 13.3 3 Este 9 Sudeste 0 -- -- 68
2019-11-25 16:00:00 14.4 9 Sudeste 14 Este 0 -- -- 66
2019-11-25 15:00:00 14.3 9 Sudeste 11 Sudeste 0 -- -- 65
2019-11-25 14:00:00 14.9 5 Sudeste 8 Sudeste 0 -- -- 62
2019-11-25 13:00:00 13 5 Sudeste 8 Sur 0 -- -- 62
2019-11-25 12:00:00 10.1 3 Sur 6 Este 0 -- -- 72
2019-11-25 11:00:00 7.1 0 Calma 8 Este 0 -- -- 82
2019-11-25 10:00:00 4.4 2 Oeste 9 Noroeste 0 -- -- 92
2019-11-25 09:00:00 2 6 Noroeste 11 Noroeste 0 -- -- 98
2019-11-25 08:00:00 1.6 7 Noroeste 10 Noroeste 0 -- -- 98
2019-11-25 07:00:00 1.8 8 Norte 12 Norte 0 -- -- 98
2019-11-25 06:00:00 1.9 6 Noroeste 10 Noroeste 0 -- -- 98
2019-11-25 05:00:00 2.4 0 Calma 14 Norte 0 -- -- 96
2019-11-25 04:00:00 3 6 Noroeste 9 Norte 0 -- -- 96
2019-11-25 03:00:00 3.5 6 Noroeste 10 Oeste 0 -- -- 93
2019-11-25 02:00:00 4.4 4 Noroeste 8 Norte 0 -- -- 89
2019-11-25 01:00:00 4.4 6 Norte 14 Norte 0 -- -- 91
2019-11-25 00:00:00 4.4 13 Norte 15 Norte 0 -- -- 92
2019-11-24 23:00:00 4.6 12 Norte 17 Norte 0 -- -- 91
2019-11-24 22:00:00 5.1 12 Norte 15 Norte 0 -- -- 91
2019-11-24 21:00:00 5.9 5 Noroeste 15 Norte 0 -- -- 89
2019-11-24 20:00:00 7 8 Oeste 13 Noroeste 0 -- -- 81
2019-11-24 19:00:00 8.5 6 Oeste 15 Oeste 0 -- -- 73
2019-11-24 18:00:00 10.1 9 Oeste 13 Oeste 0 -- -- 68
2019-11-24 17:00:00 12.6 3 Sudoeste 9 Sudoeste 0 -- -- 57
2019-11-24 16:00:00 12 4 Sudeste 10 Sudeste 0 -- -- 63
2019-11-24 15:00:00 12.3 7 Sudeste 14 Sudeste 0 -- -- 60
2019-11-24 14:00:00 11.5 3 Sudeste 11 Sudeste 0 -- -- 63
2019-11-24 13:00:00 10.8 11 Sudeste 18 Sudeste 0 -- -- 65
2019-11-24 12:00:00 8.9 14 Sudeste 21 Este 0 -- -- 73
2019-11-24 11:00:00 8.2 5 Sudeste 12 Sudeste 0 -- -- 75
2019-11-24 10:00:00 4.6 8 Norte 15 Noroeste 0 -- -- 90
2019-11-24 09:00:00 2.1 6 Norte 15 Norte 0 -- -- 95
2019-11-24 08:00:00 1 6 Nordeste 13 Nordeste 0 -- -- 96
2019-11-24 07:00:00 0.7 6 Nordeste 11 Norte 0 -- -- 97
2019-11-24 06:00:00 0.8 8 Norte 17 Norte 0 -- -- 97
2019-11-24 05:00:00 1.3 10 Norte 15 Norte 0 -- -- 96
2019-11-24 04:00:00 1.6 9 Norte 15 Norte 0 -- -- 92
2019-11-24 03:00:00 2 12 Norte 16 Norte 0 -- -- 90
2019-11-24 02:00:00 2.5 10 Norte 16 Norte 0 -- -- 88
2019-11-24 01:00:00 3.4 12 Norte 18 Norte 0 -- -- 82
2019-11-24 00:00:00 3.9 10 Norte 15 Norte 0 -- -- 78
2019-11-23 23:00:00 5.6 7 Este 17 Este 0 -- -- 71
2019-11-23 22:00:00 7.5 17 Oeste 33 Oeste 0 -- -- 56
2019-11-23 21:00:00 7.9 28 Noroeste 40 Oeste 0 -- -- 58
2019-11-23 20:00:00 6.3 14 Norte 29 Oeste 0 -- -- 90
2019-11-23 19:00:00 7 13 Norte 19 Noroeste 0 -- -- 86
2019-11-23 18:00:00 7.5 3 Sudeste 16 Sur 0 -- -- 76
2019-11-23 17:00:00 8.5 5 Oeste 24 Noroeste 0 -- -- 77
2019-11-23 16:00:00 8.8 22 Oeste 34 Oeste 0 -- -- 70
2019-11-23 15:00:00 9.4 20 Oeste 29 Oeste 0 -- -- 70
2019-11-23 14:00:00 8.8 21 Oeste 37 Sudoeste 0 -- -- 73
2019-11-23 13:00:00 8.5 15 Oeste 25 Oeste 0 -- -- 77
2019-11-23 12:00:00 7.4 6 Sudeste 11 Sudeste 0 -- -- 88
2019-11-23 11:00:00 6.2 2 Sudeste 11 Sudoeste 0.4 -- -- 97
2019-11-23 10:00:00 6.3 5 Oeste 13 Oeste 1.6 -- -- 100
2019-11-23 09:00:00 6.1 3 Norte 8 Oeste 0 -- -- 100
2019-11-23 08:00:00 6 4 Norte 10 Noroeste 0 -- -- 100
2019-11-23 07:00:00 6.1 2 Norte 8 Oeste 0.4 -- -- 100
2019-11-23 06:00:00 6.2 4 Oeste 9 Oeste 0 -- -- 100
2019-11-23 05:00:00 6.3 0 Calma 10 Norte 0 -- -- 100
2019-11-23 04:00:00 6.3 5 Norte 11 Oeste 0.2 -- -- 100
2019-11-23 03:00:00 6.5 5 Noroeste 10 Norte 0 -- -- 100
2019-11-23 02:00:00 6.7 9 Norte 13 Norte 0 -- -- 100
2019-11-23 01:00:00 7.2 3 Noroeste 17 Este 0 -- -- 100
2019-11-23 00:00:00 7.1 9 Nordeste 30 Sudoeste 6 -- -- 100
2019-11-22 23:00:00 6.7 9 Oeste 13 Oeste 5.8 -- -- 100
2019-11-22 22:00:00 6.3 9 Oeste 23 Norte 5 -- -- 100
2019-11-22 21:00:00 6 18 Norte 26 Norte 7.4 -- -- 100
2019-11-22 20:00:00 6.7 7 Noroeste 15 Norte 4 -- -- 100
2019-11-22 19:00:00 6.7 9 Noroeste 13 Oeste 4.6 -- -- 100
2019-11-22 18:00:00 6.7 5 Oeste 17 Oeste 5.6 -- -- 100
2019-11-22 17:00:00 6.7 12 Oeste 21 Noroeste 3 -- -- 99
2019-11-22 16:00:00 6.8 13 Oeste 17 Noroeste 1 -- -- 99
2019-11-22 15:00:00 6.6 4 Noroeste 10 Oeste 1.8 -- -- 99
2019-11-22 14:00:00 6.5 5 Oeste 8 Sudoeste 0.8 -- -- 97
2019-11-22 13:00:00 6.5 0 Calma 6 Sudeste 0 -- -- 94
2019-11-22 12:00:00 6.2 2 Sudoeste 6 Este 0 -- -- 95
2019-11-22 11:00:00 5.5 5 Oeste 9 Oeste 0 -- -- 97
2019-11-22 10:00:00 4.7 5 Noroeste 9 Oeste 0 -- -- 99
2019-11-22 09:00:00 3.9 3 Norte 4 Norte 0 -- -- 99
2019-11-22 08:00:00 3.5 2 Oeste 8 Nordeste 0 -- -- 99
2019-11-22 07:00:00 3.7 0 Calma 8 Noroeste 0 -- -- 98
2019-11-22 06:00:00 3.8 3 Noroeste 13 Norte 0 -- -- 97
2019-11-22 05:00:00 3.7 6 Noroeste 11 Norte 0 -- -- 99
2019-11-22 04:00:00 3.9 6 Noroeste 8 Noroeste 0 -- -- 98
2019-11-22 03:00:00 3.9 4 Norte 11 Noroeste 0 -- -- 98
2019-11-22 02:00:00 4.2 4 Noroeste 12 Norte 0 -- -- 99
2019-11-22 01:00:00 4.7 6 Noroeste 8 Oeste 0 -- -- 98
2019-11-22 00:00:00 4.7 5 Norte 10 Noroeste 0 -- -- 97
2019-11-21 23:00:00 5.1 0 Calma 9 Norte 0.2 -- -- 94
2019-11-21 22:00:00 5.7 8 Noroeste 11 Oeste 0.2 -- -- 93
2019-11-21 21:00:00 6 5 Noroeste 10 Noroeste 0 -- -- 88
2019-11-21 20:00:00 6.5 6 Norte 13 Oeste 0 -- -- 86
2019-11-21 19:00:00 7.1 5 Oeste 10 Norte 0 -- -- 83
2019-11-21 18:00:00 8.3 4 Nordeste -- -- 0 -- -- 79
2019-11-21 17:00:00 9.1 4 Sudoeste 10 Sudeste 0 -- -- 74
2019-11-21 16:00:00 9.4 9 Sudeste 15 Este 0 -- -- 71
2019-11-21 15:00:00 10.4 9 Sudeste 23 Sudeste 0 -- -- 66
2019-11-21 14:00:00 10.6 18 Sudeste 24 Sudeste 0 -- -- 64
2019-11-21 13:00:00 10.9 6 Sur 12 Sur 0 -- -- 62
2019-11-21 12:00:00 9.4 5 Sudeste 10 Sudoeste 0 -- -- 64
2019-11-21 11:00:00 6.5 4 Nordeste 7 Nordeste 0 -- -- 75
2019-11-21 10:00:00 4.8 3 Oeste 4 Norte 0 -- -- 82
2019-11-21 09:00:00 3.5 0 Calma 4 Norte 0 -- -- 86
2019-11-21 08:00:00 3.2 3 Noroeste 6 Oeste 0 -- -- 88
2019-11-21 07:00:00 3 2 Sudoeste 5 Este 0 -- -- 87
2019-11-21 06:00:00 3 3 Este 6 Norte 0 -- -- 85
2019-11-21 05:00:00 2.9 4 Norte 6 Norte 0 -- -- 84
2019-11-21 04:00:00 3.2 2 Norte 6 Norte 0 -- -- 81
2019-11-21 03:00:00 3.3 6 Noroeste 11 Noroeste 0 -- -- 81
2019-11-21 02:00:00 3 6 Oeste 12 Noroeste 0 -- -- 84
2019-11-21 01:00:00 2.5 9 Norte 10 Norte 0 -- -- 85
2019-11-21 00:00:00 2.3 5 Noroeste 15 Norte 0 -- -- 86
2019-11-20 23:00:00 2 8 Norte 13 Norte 0 -- -- 86
2019-11-20 22:00:00 2.2 9 Noroeste 13 Norte 0 -- -- 85
2019-11-20 21:00:00 2.6 8 Oeste 14 Noroeste 0 -- -- 84
2019-11-20 20:00:00 3 8 Noroeste 14 Noroeste 0 -- -- 82
2019-11-20 19:00:00 4.3 6 Noroeste 11 Norte 0 -- -- 78
2019-11-20 18:00:00 6.7 8 Norte 10 Norte 0 -- -- 69
2019-11-20 17:00:00 9.3 2 Sur 4 Sur 0 -- -- 59
2019-11-20 16:00:00 10 4 Sudeste 7 Sudeste 0 -- -- 55
2019-11-20 15:00:00 8.9 6 Sudeste 10 Sudeste 0 -- -- 55
2019-11-20 14:00:00 9.3 5 Sudeste 8 Sur 0 -- -- 52
2019-11-20 13:00:00 7 4 Este 9 Este 0 -- -- 60
2019-11-20 12:00:00 4.4 5 Sudeste 8 Sudoeste 0 -- -- 75
2019-11-20 11:00:00 2.1 3 Oeste 6 Sudoeste 0 -- -- 84
2019-11-20 10:00:00 -0.6 0 Calma 5 Norte 0 -- -- 92
2019-11-20 09:00:00 -2.3 2 Noroeste 8 Norte 0 -- -- 96
2019-11-20 08:00:00 -2.9 7 Noroeste 9 Oeste 0 -- -- 95
2019-11-20 07:00:00 -2.2 7 Norte 8 Norte 0 -- -- 95
2019-11-20 06:00:00 -1.7 5 Noroeste 14 Noroeste 0 -- -- 93
2019-11-20 05:00:00 -2.1 6 Noroeste 12 Norte 0 -- -- 95
2019-11-20 04:00:00 -1.4 5 Noroeste 13 Noroeste 0 -- -- 93
2019-11-20 03:00:00 -2 9 Noroeste 13 Norte 0 -- -- 95
2019-11-20 02:00:00 -1.5 5 Noroeste 12 Noroeste 0 -- -- 94
2019-11-20 01:00:00 -0.9 5 Noroeste 10 Oeste 0 -- -- 92
2019-11-20 00:00:00 -0.7 9 Norte 11 Norte 0 -- -- 92
2019-11-19 23:00:00 0.1 4 Oeste 13 Norte 0 -- -- 88
2019-11-19 22:00:00 0.8 6 Noroeste 12 Norte 0 -- -- 86
2019-11-19 21:00:00 1.3 10 Norte 13 Norte 0 -- -- 85
2019-11-19 20:00:00 2.7 10 Oeste 17 Noroeste 0 -- -- 80
2019-11-19 19:00:00 4.4 10 Norte 14 Norte 0 -- -- 73
2019-11-19 18:00:00 5.8 10 Sudeste 20 Sudeste 0 -- -- 68
2019-11-19 17:00:00 8.3 15 Sudeste 21 Sudeste 0 -- -- 59
2019-11-19 16:00:00 10.3 11 Sudeste 14 Sudeste 0 -- -- 47
2019-11-19 15:00:00 10.7 9 Sudeste 15 Sudeste 0 -- -- 44
2019-11-19 14:00:00 10.2 10 Sudeste 18 Sudeste 0 -- -- 47
2019-11-19 13:00:00 9.1 5 Este 9 Este 0 -- -- 43
2019-11-19 12:00:00 6.8 5 Sur 10 Este 0 -- -- 56
2019-11-19 11:00:00 3.7 4 Sur 7 Sudoeste 0 -- -- 68
2019-11-19 10:00:00 0.9 3 Sur 6 Este 0 -- -- 81
2019-11-19 09:00:00 -1.8 0 Calma 12 Norte 0 -- -- 88
2019-11-19 08:00:00 -3 5 Noroeste 11 Norte 0 -- -- 89
2019-11-19 07:00:00 -2.4 6 Norte 12 Norte 0 -- -- 86
2019-11-19 06:00:00 -2.7 5 Norte 13 Norte 0 -- -- 90
2019-11-19 05:00:00 -1.8 9 Noroeste 13 Noroeste 0 -- -- 83
2019-11-19 04:00:00 -1.9 10 Noroeste 12 Norte 0 -- -- 87
2019-11-19 03:00:00 -1 6 Noroeste 17 Norte 0 -- -- 80
2019-11-19 02:00:00 -0.7 11 Noroeste 17 Norte 0 -- -- 81
2019-11-19 01:00:00 0.4 8 Noroeste 14 Norte 0 -- -- 76
2019-11-19 00:00:00 0.9 4 Norte 11 Norte 0 -- -- 73
2019-11-18 23:00:00 1.9 3 Nordeste 18 Sudoeste 0 -- -- 69
2019-11-18 22:00:00 3.5 8 Oeste 18 Oeste 0 -- -- 61
2019-11-18 21:00:00 3.6 13 Oeste 25 Oeste 0 -- -- 61
2019-11-18 20:00:00 4.5 17 Oeste 27 Oeste 0 -- -- 57
2019-11-18 19:00:00 5.3 15 Oeste 21 Oeste 0 -- -- 59
2019-11-18 18:00:00 6.9 12 Oeste 18 Sudoeste 0 -- -- 56
2019-11-18 17:00:00 9.9 14 Sudoeste 24 Sudoeste 0 -- -- 51
2019-11-18 16:00:00 11.2 16 Sur 27 Sudoeste 0 -- -- 50
2019-11-18 15:00:00 12.3 13 Sudoeste 19 Sudoeste 0 -- -- 52
2019-11-18 14:00:00 11.5 8 Sudeste 22 Sudeste 0 -- -- 58
2019-11-18 13:00:00 10.1 14 Sudeste 22 Sudeste 0 -- -- 65
2019-11-18 12:00:00 8.7 9 Sudeste 13 Sudeste 0 -- -- 72
2019-11-18 11:00:00 5.8 6 Sudeste 9 Este 0 -- -- 90
2019-11-18 10:00:00 3 2 Sur 8 Sur 0 -- -- 99
2019-11-18 09:00:00 2.1 2 Este 12 Noroeste 0 -- -- 100
2019-11-18 08:00:00 1.2 4 Norte 12 Norte 0 -- -- 100
2019-11-18 07:00:00 1.7 5 Noroeste 11 Noroeste 0 -- -- 100
2019-11-18 06:00:00 2.1 0 Calma 10 Noroeste 0 -- -- 98
2019-11-18 05:00:00 2 3 Norte 8 Noroeste 0 -- -- 98
2019-11-18 04:00:00 2.1 3 Oeste 6 Norte 0 -- -- 98
2019-11-18 03:00:00 2.1 5 Norte 7 Norte 0 -- -- 99
2019-11-18 02:00:00 1.7 7 Noroeste 9 Noroeste 0 -- -- 99
2019-11-18 01:00:00 2.6 3 Noroeste 9 Oeste 0 -- -- 97
2019-11-18 00:00:00 3.6 2 Sur 8 Oeste 0 -- -- 93
2019-11-17 23:00:00 4.3 5 Noroeste 9 Oeste 0 -- -- 92
2019-11-17 22:00:00 4.7 5 Nordeste 15 Oeste 0 -- -- 90
2019-11-17 21:00:00 4.8 7 Noroeste 10 Noroeste 0 -- -- 90
2019-11-17 20:00:00 6 3 Este 7 Este 0 -- -- 86
2019-11-17 19:00:00 6.2 4 Oeste 11 Noroeste 0 -- -- 83
2019-11-17 18:00:00 7 4 Oeste 14 Sudoeste 0 -- -- 77
2019-11-17 17:00:00 8.3 8 Sur 12 Este 0 -- -- 74
2019-11-17 16:00:00 8.7 8 Sudeste 11 Sudeste 0 -- -- 74
2019-11-17 15:00:00 9.1 5 Sudeste 15 Sudeste 0 -- -- 71
2019-11-17 14:00:00 7.8 9 Sudeste 12 Sudeste 0 -- -- 75
2019-11-17 13:00:00 6.9 5 Sudeste 10 Sudoeste 0 -- -- 77
2019-11-17 12:00:00 4.8 4 Este 10 Sudeste 0 -- -- 84
2019-11-17 11:00:00 1.8 3 Sudeste 8 Este 0 -- -- 99
2019-11-17 10:00:00 -0.3 2 Oeste 5 Oeste 0.2 -- -- 100
2019-11-17 09:00:00 -1.7 4 Noroeste 6 Sudoeste 0 -- -- 100
2019-11-17 08:00:00 -1.7 3 Norte 12 Noroeste 0 -- -- 99
2019-11-17 07:00:00 -1.9 0 Calma 13 Oeste 0 -- -- 99
2019-11-17 06:00:00 -2.2 9 Oeste 12 Oeste 0 -- -- 99
2019-11-17 05:00:00 -1.5 4 Noroeste 10 Oeste 0 -- -- 99
2019-11-17 04:00:00 -1.7 5 Norte 10 Norte 0 -- -- 99
2019-11-17 03:00:00 -1.4 4 Norte 9 Noroeste 0 -- -- 99
2019-11-17 02:00:00 -1 3 Nordeste 11 Norte 0 -- -- 99
2019-11-17 01:00:00 -1 6 Norte 12 Norte 0 -- -- 99
2019-11-17 00:00:00 -0.8 3 Nordeste 12 Este 0 -- -- 100
2019-11-16 23:00:00 -0.7 4 Sur 10 Norte 0 -- -- 98
2019-11-16 22:00:00 -0.1 8 Noroeste 12 Noroeste 0 -- -- 99
2019-11-16 21:00:00 0.2 7 Noroeste 11 Norte 0 -- -- 98
2019-11-16 20:00:00 0.8 6 Norte 10 Norte 0 -- -- 97
2019-11-16 19:00:00 1.8 4 Este 13 Oeste 0 -- -- 95
2019-11-16 18:00:00 2.5 8 Oeste 12 Oeste 0 -- -- 93
2019-11-16 17:00:00 3.3 8 Oeste 11 Oeste 0 -- -- 90
2019-11-16 16:00:00 3.8 10 Oeste 15 Oeste 0 -- -- 88
2019-11-16 15:00:00 5.1 6 Oeste 9 Oeste 0 -- -- 73
2019-11-16 14:00:00 4.6 3 Sur 8 Sudoeste 0 -- -- 76
2019-11-16 13:00:00 4.6 4 Este 7 Nordeste 0 -- -- 78
2019-11-16 12:00:00 2.4 0 Calma 8 Oeste 0 -- -- 87
2019-11-16 11:00:00 1 0 Calma 6 Sudoeste 0 -- -- 96
2019-11-16 10:00:00 0.4 3 Oeste 8 Sudeste 0.2 -- -- 95
2019-11-16 09:00:00 -1.5 2 Norte 10 Norte 0 -- -- 99
2019-11-16 08:00:00 -2.7 6 Norte 12 Norte 0 -- -- 97
2019-11-16 07:00:00 -2.3 7 Noroeste 12 Norte 0 -- -- 98
2019-11-16 06:00:00 -1.8 10 Norte 11 Norte 0 -- -- 99
2019-11-16 05:00:00 -1.9 3 Noroeste 12 Norte 0 -- -- 99
2019-11-16 04:00:00 -1.7 6 Noroeste 8 Norte 0 -- -- 100
2019-11-16 03:00:00 -1.1 5 Sur 13 Sudeste 0 -- -- 99
2019-11-16 02:00:00 -0.7 5 Nordeste 13 Noroeste 0 -- -- 98
2019-11-16 01:00:00 -0.2 7 Norte 12 Norte 0 -- -- 100
2019-11-16 00:00:00 -0.1 3 Sur 11 Norte 0 -- -- 99